createdAt,value
2022-09-13T00:00:34.218Z,15.78
2022-09-13T00:03:00.418Z,15.79
2022-09-13T00:05:26.617Z,15.70
2022-09-13T00:07:52.810Z,15.72
2022-09-13T00:10:19.032Z,15.77
2022-09-13T00:12:45.235Z,15.81
2022-09-13T00:15:11.449Z,15.81
2022-09-13T00:17:37.636Z,15.78
2022-09-13T00:20:03.890Z,15.77
2022-09-13T00:22:30.099Z,15.74
2022-09-13T00:24:56.320Z,15.71
2022-09-13T00:27:22.512Z,15.83
2022-09-13T00:29:48.723Z,15.87
2022-09-13T00:32:14.908Z,15.92
2022-09-13T00:34:41.119Z,15.93
2022-09-13T00:37:07.312Z,15.92
2022-09-13T00:39:33.515Z,15.93
2022-09-13T00:41:59.707Z,15.96
2022-09-13T00:44:44.501Z,15.92
2022-09-13T00:47:10.705Z,15.92
2022-09-13T00:49:36.944Z,15.92
2022-09-13T00:52:08.097Z,15.87
2022-09-13T00:54:36.198Z,15.86
2022-09-13T00:57:02.387Z,15.85
2022-09-13T00:59:29.934Z,15.90
2022-09-13T01:01:56.266Z,15.93
2022-09-13T01:04:22.874Z,15.93
2022-09-13T01:06:49.079Z,15.98
2022-09-13T01:09:15.283Z,15.95
2022-09-13T01:11:47.583Z,15.91
2022-09-13T01:14:13.777Z,15.87
2022-09-13T01:16:40.053Z,15.84
2022-09-13T01:19:06.288Z,15.81
2022-09-13T01:21:41.617Z,15.81
2022-09-13T01:24:26.721Z,15.79
2022-09-13T01:26:58.657Z,15.76
2022-09-13T01:29:38.693Z,15.79
2022-09-13T01:32:07.996Z,15.76
2022-09-13T01:34:34.180Z,15.73
2022-09-13T01:37:07.345Z,15.73
2022-09-13T01:39:33.481Z,15.73
2022-09-13T01:42:21.924Z,15.74
2022-09-13T01:44:48.070Z,15.84
2022-09-13T01:47:14.218Z,15.80
2022-09-13T01:49:40.366Z,15.81
2022-09-13T01:52:27.996Z,15.83
2022-09-13T01:54:57.147Z,15.83
2022-09-13T01:57:33.045Z,15.82
2022-09-13T02:00:00.909Z,15.76
2022-09-13T02:02:38.454Z,15.74
2022-09-13T02:05:06.989Z,15.68
2022-09-13T02:07:35.433Z,15.62
2022-09-13T02:10:06.416Z,15.53
2022-09-13T02:12:32.670Z,15.44
2022-09-13T02:15:01.356Z,15.41
2022-09-13T02:17:28.629Z,15.36
2022-09-13T02:19:58.732Z,15.34
2022-09-13T02:22:31.738Z,15.29
2022-09-13T02:24:59.484Z,15.27
2022-09-13T02:27:26.106Z,15.25
2022-09-13T02:29:53.870Z,15.17
2022-09-13T02:32:24.646Z,15.14
2022-09-13T02:34:54.399Z,15.15
2022-09-13T02:37:20.602Z,15.20
2022-09-13T02:39:51.808Z,15.17
2022-09-13T02:42:19.701Z,15.13
2022-09-13T02:44:46.284Z,15.14
2022-09-13T02:47:15.532Z,15.10
2022-09-13T02:50:00.378Z,15.09
2022-09-13T02:52:33.235Z,15.04
2022-09-13T02:55:04.480Z,15.03
2022-09-13T02:57:38.164Z,15.02
2022-09-13T03:00:04.847Z,15.06
2022-09-13T03:02:34.228Z,15.04
2022-09-13T03:05:00.848Z,15.05
2022-09-13T03:07:27.166Z,15.06
2022-09-13T03:09:54.460Z,15.04
2022-09-13T03:12:29.702Z,15.01
2022-09-13T03:15:04.994Z,14.95
2022-09-13T03:17:40.926Z,14.98
2022-09-13T03:20:13.182Z,14.97
2022-09-13T03:22:58.361Z,14.99
2022-09-13T03:25:30.918Z,14.96
2022-09-13T03:28:03.188Z,14.94
2022-09-13T03:30:29.368Z,15.00
2022-09-13T03:33:07.009Z,14.99
2022-09-13T03:35:37.437Z,15.01
2022-09-13T03:38:08.084Z,14.95
2022-09-13T03:40:53.096Z,14.95
2022-09-13T03:43:25.067Z,14.95
2022-09-13T03:45:55.830Z,14.96
2022-09-13T03:48:22.132Z,14.98
2022-09-13T03:50:48.319Z,15.00
2022-09-13T03:53:15.154Z,14.90
2022-09-13T03:55:41.901Z,14.94
2022-09-13T03:58:14.666Z,14.95
2022-09-13T04:00:40.861Z,14.98
2022-09-13T04:03:07.277Z,14.96
2022-09-13T04:05:33.574Z,14.96
2022-09-13T04:07:59.783Z,14.99
2022-09-13T04:10:25.983Z,15.06
2022-09-13T04:12:53.626Z,14.99
2022-09-13T04:15:19.905Z,15.00
2022-09-13T04:17:46.101Z,14.99
2022-09-13T04:20:12.289Z,14.95
2022-09-13T04:22:38.499Z,14.92
2022-09-13T04:25:04.941Z,14.95
2022-09-13T04:27:31.144Z,14.92
2022-09-13T04:29:57.338Z,14.94
2022-09-13T04:32:23.537Z,14.94
2022-09-13T04:34:49.726Z,14.96
2022-09-13T04:37:15.942Z,14.97
2022-09-13T04:39:42.182Z,15.00
2022-09-13T04:42:08.647Z,15.02
2022-09-13T04:44:34.837Z,15.02
2022-09-13T04:47:01.050Z,14.99
2022-09-13T04:49:27.259Z,15.00
2022-09-13T04:51:53.465Z,14.98
2022-09-13T04:54:19.652Z,15.00
2022-09-13T04:56:45.889Z,14.99
2022-09-13T04:59:12.089Z,14.97
2022-09-13T05:01:38.463Z,14.95
2022-09-13T05:04:05.578Z,14.97
2022-09-13T05:06:31.764Z,14.99
2022-09-13T05:08:57.977Z,14.99
2022-09-13T05:11:24.698Z,15.00
2022-09-13T05:13:51.315Z,15.02
2022-09-13T05:16:17.581Z,15.00
2022-09-13T05:18:45.328Z,15.05
2022-09-13T05:21:11.682Z,15.03
2022-09-13T05:23:37.888Z,15.03
2022-09-13T05:26:04.865Z,15.03
2022-09-13T05:28:31.732Z,15.00
2022-09-13T05:31:01.867Z,15.04
2022-09-13T05:33:28.722Z,15.03
2022-09-13T05:35:54.926Z,15.03
2022-09-13T05:38:21.132Z,15.01
2022-09-13T05:40:47.436Z,15.01
2022-09-13T05:43:13.679Z,15.04
2022-09-13T05:45:40.152Z,15.05
2022-09-13T05:48:06.366Z,15.05
2022-09-13T05:50:57.351Z,15.05
2022-09-13T05:53:18.934Z,15.05
2022-09-13T05:55:45.124Z,15.07
2022-09-13T05:58:11.330Z,15.08
2022-09-13T06:00:37.527Z,15.07
2022-09-13T06:03:03.738Z,15.10
2022-09-13T06:05:31.882Z,15.11
2022-09-13T06:07:58.310Z,15.12
2022-09-13T06:10:24.497Z,15.14
2022-09-13T06:12:50.706Z,15.16
2022-09-13T06:15:16.897Z,15.19
2022-09-13T06:17:43.109Z,15.20
2022-09-13T06:20:09.350Z,15.22
2022-09-13T06:22:35.562Z,15.26
2022-09-13T06:25:01.755Z,15.33
2022-09-13T06:27:29.034Z,15.39
2022-09-13T06:29:55.230Z,15.42
2022-09-13T06:32:21.443Z,15.41
2022-09-13T06:34:47.648Z,15.38
2022-09-13T06:37:13.832Z,15.41
2022-09-13T06:39:40.108Z,15.39
2022-09-13T06:42:06.348Z,15.44
2022-09-13T06:44:32.597Z,15.41
2022-09-13T06:46:58.802Z,15.41
2022-09-13T06:49:25.029Z,15.45
2022-09-13T06:51:51.231Z,15.46
2022-09-13T06:54:17.437Z,15.44
2022-09-13T06:56:43.626Z,15.46
2022-09-13T06:59:09.874Z,15.48
2022-09-13T07:01:37.012Z,15.51
2022-09-13T07:04:06.800Z,15.51
2022-09-13T07:06:33.758Z,15.58
2022-09-13T07:09:00.280Z,15.63
2022-09-13T07:11:27.037Z,15.64
2022-09-13T07:13:56.664Z,15.74
2022-09-13T07:16:26.582Z,15.80
2022-09-13T07:18:53.059Z,15.84
2022-09-13T07:21:19.254Z,15.86
2022-09-13T07:23:45.453Z,15.89
2022-09-13T07:26:11.641Z,16.01
2022-09-13T07:28:38.705Z,16.00
2022-09-13T07:31:18.062Z,16.07
2022-09-13T07:33:44.436Z,16.14
2022-09-13T07:36:11.300Z,16.27
2022-09-13T07:38:38.146Z,16.38
2022-09-13T07:41:04.680Z,16.46
2022-09-13T07:43:30.891Z,16.69
2022-09-13T07:46:00.532Z,16.82
2022-09-13T07:48:30.458Z,16.79
2022-09-13T07:51:00.332Z,16.71
2022-09-13T07:53:26.669Z,16.66
2022-09-13T07:55:52.860Z,16.78
2022-09-13T07:58:19.056Z,17.10
2022-09-13T08:00:45.274Z,17.02
2022-09-13T08:03:11.480Z,17.03
2022-09-13T08:05:43.761Z,17.62
2022-09-13T08:08:09.972Z,17.36
2022-09-13T08:10:36.156Z,17.56
2022-09-13T08:13:02.353Z,18.11
2022-09-13T08:15:28.609Z,18.49
2022-09-13T08:17:54.824Z,18.65
2022-09-13T08:20:21.033Z,18.83
2022-09-13T08:22:47.230Z,19.13
2022-09-13T08:25:13.461Z,18.69
2022-09-13T08:27:39.648Z,18.71
2022-09-13T08:30:06.006Z,19.26
2022-09-13T08:32:32.200Z,18.93
2022-09-13T08:34:58.409Z,19.01
2022-09-13T08:37:24.597Z,18.87
2022-09-13T08:39:50.829Z,19.09
2022-09-13T08:42:22.338Z,19.21
2022-09-13T08:44:49.701Z,19.45
2022-09-13T08:47:34.094Z,19.62
2022-09-13T08:50:20.527Z,19.65
2022-09-13T08:52:55.608Z,19.41
2022-09-13T08:55:24.079Z,19.01
2022-09-13T08:57:53.116Z,19.18
2022-09-13T09:00:23.461Z,19.15
2022-09-13T09:02:52.700Z,18.81
2022-09-13T09:05:25.529Z,18.66
2022-09-13T09:07:58.998Z,18.49
2022-09-13T09:10:28.146Z,18.34
2022-09-13T09:12:55.712Z,18.39
2022-09-13T09:15:25.880Z,18.64
2022-09-13T09:17:59.579Z,18.51
2022-09-13T09:20:40.308Z,19.11
2022-09-13T09:23:07.978Z,19.68
2022-09-13T09:25:34.179Z,19.68
2022-09-13T09:28:00.366Z,19.83
2022-09-13T09:30:30.258Z,19.91
2022-09-13T09:33:05.919Z,19.93
2022-09-13T09:35:42.800Z,19.76
2022-09-13T09:38:21.214Z,19.49
2022-09-13T09:40:47.415Z,19.70
2022-09-13T09:43:18.121Z,19.83
2022-09-13T09:45:44.354Z,19.70
2022-09-13T09:48:12.856Z,20.15
2022-09-13T09:50:39.909Z,20.60
2022-09-13T09:53:12.714Z,20.33
2022-09-13T09:55:41.069Z,20.28
2022-09-13T09:58:07.702Z,20.31
2022-09-13T10:00:34.764Z,20.61
2022-09-13T10:03:16.836Z,20.61
2022-09-13T10:05:43.032Z,20.65
2022-09-13T10:08:21.997Z,20.68
2022-09-13T10:10:54.586Z,20.08
2022-09-13T10:13:21.627Z,19.65
2022-09-13T10:15:57.721Z,19.26
2022-09-13T10:18:43.505Z,19.59
2022-09-13T10:21:19.329Z,19.45
2022-09-13T10:23:45.835Z,20.03
2022-09-13T10:26:12.858Z,20.44
2022-09-13T10:28:54.357Z,20.53
2022-09-13T10:31:20.733Z,20.54
2022-09-13T10:33:49.983Z,20.53
2022-09-13T10:36:25.154Z,20.34
2022-09-13T10:39:04.975Z,19.59
2022-09-13T10:41:32.693Z,19.97
2022-09-13T10:43:59.367Z,20.14
2022-09-13T10:46:25.762Z,20.09
2022-09-13T10:48:51.975Z,20.03
2022-09-13T10:51:27.388Z,20.17
2022-09-13T10:54:06.992Z,20.11
2022-09-13T10:56:33.206Z,20.16
2022-09-13T10:59:14.616Z,19.83
2022-09-13T11:01:43.235Z,19.75
2022-09-13T11:04:14.962Z,19.95
2022-09-13T11:07:01.506Z,20.20
2022-09-13T11:09:36.938Z,19.76
2022-09-13T11:12:22.031Z,19.55
2022-09-13T11:14:55.116Z,19.40
2022-09-13T11:17:24.485Z,19.18
2022-09-13T11:20:09.390Z,19.43
2022-09-13T11:22:41.441Z,19.32
2022-09-13T11:25:13.590Z,19.64
2022-09-13T11:27:55.670Z,19.61
2022-09-13T11:30:25.325Z,19.83
2022-09-13T11:33:12.775Z,19.79
2022-09-13T11:35:42.863Z,19.96
2022-09-13T11:38:15.159Z,20.23
2022-09-13T11:40:41.303Z,20.18
2022-09-13T11:43:10.395Z,19.82
2022-09-13T11:45:54.862Z,19.79
2022-09-13T11:48:27.272Z,20.03
2022-09-13T11:50:59.362Z,20.22
2022-09-13T11:53:47.078Z,20.40
2022-09-13T11:56:39.671Z,20.32
2022-09-13T11:59:24.969Z,20.52
2022-09-13T12:01:54.419Z,20.34
2022-09-13T12:04:25.910Z,20.14
2022-09-13T12:06:54.716Z,19.89
2022-09-13T12:09:22.075Z,19.99
2022-09-13T12:11:59.275Z,19.87
2022-09-13T12:14:26.105Z,19.69
2022-09-13T12:16:53.518Z,19.98
2022-09-13T12:19:24.276Z,20.26
2022-09-13T12:21:51.334Z,20.40
2022-09-13T12:24:28.074Z,20.88
2022-09-13T12:26:55.734Z,20.95
2022-09-13T12:29:29.331Z,20.47
2022-09-13T12:31:56.286Z,20.00
2022-09-13T12:34:24.637Z,19.66
2022-09-13T12:37:00.674Z,19.46
2022-09-13T12:39:32.868Z,19.26
2022-09-13T12:42:03.626Z,19.01
2022-09-13T12:44:45.101Z,19.20
2022-09-13T12:47:11.264Z,19.50
2022-09-13T12:49:58.786Z,19.81
2022-09-13T12:52:30.597Z,20.26
2022-09-13T12:55:46.515Z,20.17
2022-09-13T12:58:31.566Z,20.08
2022-09-13T13:01:02.491Z,19.99
2022-09-13T13:03:29.713Z,20.04
2022-09-13T13:06:28.500Z,19.75
2022-09-13T13:08:55.482Z,19.65
2022-09-13T13:11:25.728Z,19.74
2022-09-13T13:13:56.004Z,19.72
2022-09-13T13:16:27.007Z,19.59
2022-09-13T13:18:53.730Z,19.39
2022-09-13T13:21:27.333Z,19.29
2022-09-13T13:24:12.378Z,19.37
2022-09-13T13:26:44.324Z,19.49
2022-09-13T13:29:13.308Z,19.48
2022-09-13T13:31:39.829Z,19.55
2022-09-13T13:34:06.031Z,19.44
2022-09-13T13:36:42.733Z,19.54
2022-09-13T13:39:24.159Z,19.85
2022-09-13T13:41:57.082Z,20.01
2022-09-13T13:44:23.232Z,20.26
2022-09-13T13:46:50.077Z,20.36
2022-09-13T13:49:31.531Z,20.42
2022-09-13T13:52:24.053Z,20.21
2022-09-13T13:55:02.348Z,20.11
2022-09-13T13:57:32.266Z,20.42
2022-09-13T14:00:04.498Z,20.33
2022-09-13T14:02:31.696Z,20.40
2022-09-13T14:05:00.657Z,20.55
2022-09-13T14:07:33.029Z,20.33
2022-09-13T14:10:01.461Z,20.15
2022-09-13T14:12:44.445Z,19.69
2022-09-13T14:15:13.652Z,19.63
2022-09-13T14:17:47.733Z,19.63
2022-09-13T14:20:15.247Z,19.71
2022-09-13T14:22:41.440Z,19.75
2022-09-13T14:25:16.055Z,19.84
2022-09-13T14:27:42.295Z,19.87
2022-09-13T14:30:18.661Z,19.89
2022-09-13T14:32:49.342Z,19.73
2022-09-13T14:35:28.845Z,19.53
2022-09-13T14:37:55.323Z,19.38
2022-09-13T14:40:25.237Z,19.26
2022-09-13T14:42:51.516Z,19.19
2022-09-13T14:45:18.908Z,19.32
2022-09-13T14:47:54.375Z,19.60
2022-09-13T14:50:22.369Z,19.79
2022-09-13T14:52:53.025Z,19.86
2022-09-13T14:55:20.917Z,19.53
2022-09-13T14:57:48.792Z,19.39
2022-09-13T15:00:15.153Z,19.22
2022-09-13T15:02:41.949Z,19.19
2022-09-13T15:05:13.396Z,19.13
2022-09-13T15:07:40.330Z,19.14
2022-09-13T15:10:07.919Z,19.06
2022-09-13T15:12:34.117Z,19.04
2022-09-13T15:15:35.833Z,19.00
2022-09-13T15:18:06.010Z,18.97
2022-09-13T15:20:44.417Z,18.86
2022-09-13T15:23:13.627Z,18.85
2022-09-13T15:25:39.825Z,18.91
2022-09-13T15:28:06.099Z,18.86
2022-09-13T15:30:37.454Z,19.01
2022-09-13T15:33:22.960Z,18.99
2022-09-13T15:35:49.845Z,18.87
2022-09-13T15:38:17.474Z,18.77
2022-09-13T15:40:44.643Z,18.72
2022-09-13T15:43:10.849Z,18.66
2022-09-13T15:45:37.059Z,18.61
2022-09-13T15:48:03.248Z,18.54
2022-09-13T15:50:29.818Z,18.54
2022-09-13T15:52:56.004Z,18.45
2022-09-13T15:55:22.215Z,18.44
2022-09-13T15:57:48.408Z,18.43
2022-09-13T16:00:15.487Z,18.49
2022-09-13T16:02:41.682Z,18.54
2022-09-13T16:05:07.890Z,18.52
2022-09-13T16:07:34.078Z,18.47
2022-09-13T16:10:00.280Z,18.44
2022-09-13T16:12:26.467Z,18.36
2022-09-13T16:14:52.669Z,18.35
2022-09-13T16:17:22.739Z,18.50
2022-09-13T16:19:48.936Z,18.55
2022-09-13T16:22:15.242Z,18.57
2022-09-13T16:24:41.451Z,18.41
2022-09-13T16:27:07.680Z,18.23
2022-09-13T16:29:33.893Z,18.07
2022-09-13T16:32:00.096Z,18.04
2022-09-13T16:34:26.391Z,17.99
2022-09-13T16:36:52.602Z,17.98
2022-09-13T16:39:18.847Z,17.99
2022-09-13T16:41:45.053Z,17.93
2022-09-13T16:44:11.261Z,17.92
2022-09-13T16:46:37.504Z,17.90
2022-09-13T16:49:03.759Z,17.91
2022-09-13T16:51:29.965Z,17.81
2022-09-13T16:53:56.162Z,17.72
2022-09-13T16:56:23.123Z,17.68
2022-09-13T16:58:49.508Z,17.60
2022-09-13T17:01:16.667Z,17.50
2022-09-13T17:03:42.913Z,17.47
2022-09-13T17:06:09.796Z,17.38
2022-09-13T17:08:36.838Z,17.31
2022-09-13T17:11:06.451Z,17.25
2022-09-13T17:13:32.706Z,17.19
2022-09-13T17:15:58.925Z,17.09
2022-09-13T17:18:25.158Z,17.02
2022-09-13T17:20:51.357Z,16.98
2022-09-13T17:23:17.587Z,16.96
2022-09-13T17:25:44.050Z,16.92
2022-09-13T17:28:10.243Z,16.86
2022-09-13T17:30:36.444Z,16.77
2022-09-13T17:33:02.643Z,16.73
2022-09-13T17:35:28.839Z,16.70
2022-09-13T17:37:55.023Z,16.65
2022-09-13T17:40:21.252Z,16.67
2022-09-13T17:42:47.494Z,16.62
2022-09-13T17:45:13.699Z,16.58
2022-09-13T17:47:39.909Z,16.53
2022-09-13T17:50:06.339Z,16.50
2022-09-13T17:52:34.885Z,16.50
2022-09-13T17:55:01.563Z,16.42
2022-09-13T17:57:27.764Z,16.38
2022-09-13T17:59:53.977Z,16.39
2022-09-13T18:02:20.461Z,16.35
2022-09-13T18:04:46.732Z,16.30
2022-09-13T18:07:12.931Z,16.23
2022-09-13T18:09:39.128Z,16.23
2022-09-13T18:12:05.316Z,16.21
2022-09-13T18:14:31.520Z,16.16
2022-09-13T18:16:57.730Z,16.15
2022-09-13T18:19:44.231Z,16.12
2022-09-13T18:22:10.156Z,16.06
2022-09-13T18:24:36.353Z,16.04
2022-09-13T18:27:02.677Z,16.08
2022-09-13T18:29:28.873Z,16.06
2022-09-13T18:31:55.115Z,16.06
2022-09-13T18:34:24.613Z,16.04
2022-09-13T18:36:53.232Z,16.00
2022-09-13T18:39:20.062Z,16.03
2022-09-13T18:41:46.320Z,16.04
2022-09-13T18:44:12.817Z,16.00
2022-09-13T18:46:39.206Z,15.86
2022-09-13T18:49:05.781Z,15.74
2022-09-13T18:51:33.543Z,15.76
2022-09-13T18:53:59.828Z,15.77
2022-09-13T18:56:26.149Z,15.76
2022-09-13T18:58:52.554Z,15.76
2022-09-13T19:01:20.135Z,15.65
2022-09-13T19:03:47.392Z,15.58
2022-09-13T19:06:16.253Z,15.56
2022-09-13T19:08:42.551Z,15.47
2022-09-13T19:11:23.807Z,15.47
2022-09-13T19:13:55.129Z,15.50
2022-09-13T19:16:21.402Z,15.44
2022-09-13T19:18:48.075Z,15.42
2022-09-13T19:21:16.002Z,15.48
2022-09-13T19:23:58.361Z,15.49
2022-09-13T19:26:34.700Z,15.50
2022-09-13T19:29:01.648Z,15.51
2022-09-13T19:31:27.929Z,15.49
2022-09-13T19:33:54.481Z,15.49
2022-09-13T19:36:21.562Z,15.57
2022-09-13T19:38:47.766Z,15.58
2022-09-13T19:41:14.739Z,15.61
2022-09-13T19:43:41.339Z,15.60
2022-09-13T19:46:07.572Z,15.60
2022-09-13T19:48:38.999Z,15.50
2022-09-13T19:51:06.473Z,15.51
2022-09-13T19:53:53.300Z,15.57
2022-09-13T19:56:19.486Z,15.44
2022-09-13T19:58:45.684Z,15.40
2022-09-13T20:01:13.009Z,15.47
2022-09-13T20:03:39.235Z,15.44
2022-09-13T20:06:06.480Z,15.39
2022-09-13T20:08:32.818Z,15.40
2022-09-13T20:10:59.029Z,15.34
2022-09-13T20:13:25.234Z,15.34
2022-09-13T20:15:51.459Z,15.42
2022-09-13T20:18:17.677Z,15.40
2022-09-13T20:20:43.971Z,15.37
2022-09-13T20:23:10.233Z,15.36
2022-09-13T20:25:36.438Z,15.33
2022-09-13T20:28:03.017Z,15.35
2022-09-13T20:30:29.252Z,15.34
2022-09-13T20:32:55.522Z,15.35
2022-09-13T20:35:21.730Z,15.30
2022-09-13T20:37:47.966Z,15.28
2022-09-13T20:40:14.336Z,15.28
2022-09-13T20:42:40.569Z,15.33
2022-09-13T20:45:06.910Z,15.33
2022-09-13T20:47:33.403Z,15.32
2022-09-13T20:49:59.624Z,15.36
2022-09-13T20:52:25.825Z,15.29
2022-09-13T20:54:52.033Z,15.27
2022-09-13T20:57:18.230Z,15.10
2022-09-13T20:59:44.425Z,15.00
2022-09-13T21:02:10.746Z,14.99
2022-09-13T21:04:36.956Z,15.06
2022-09-13T21:07:03.158Z,15.02
2022-09-13T21:09:29.393Z,15.06
2022-09-13T21:11:55.589Z,15.04
2022-09-13T21:14:21.845Z,15.05
2022-09-13T21:16:48.086Z,15.08
2022-09-13T21:19:14.316Z,15.08
2022-09-13T21:21:40.712Z,15.13
2022-09-13T21:24:07.252Z,15.11
2022-09-13T21:26:33.451Z,15.14
2022-09-13T21:28:59.648Z,15.23
2022-09-13T21:31:26.728Z,15.20
2022-09-13T21:33:53.590Z,15.20
2022-09-13T21:36:19.799Z,15.19
2022-09-13T21:38:46.002Z,15.15
2022-09-13T21:41:13.189Z,15.17
2022-09-13T21:43:39.400Z,15.15
2022-09-13T21:46:05.599Z,15.17
2022-09-13T21:48:32.323Z,15.11
2022-09-13T21:51:17.408Z,15.09
2022-09-13T21:53:43.750Z,15.04
2022-09-13T21:56:10.532Z,15.01
2022-09-13T21:58:36.757Z,15.00
2022-09-13T22:01:12.562Z,14.92
2022-09-13T22:03:39.675Z,14.93
2022-09-13T22:06:06.302Z,14.94
2022-09-13T22:08:32.966Z,14.87
2022-09-13T22:11:12.145Z,14.83
2022-09-13T22:13:38.628Z,14.84
2022-09-13T22:16:05.702Z,14.85
2022-09-13T22:18:31.893Z,14.76
2022-09-13T22:21:02.669Z,14.78
2022-09-13T22:23:28.965Z,14.92
2022-09-13T22:25:55.174Z,15.01
2022-09-13T22:28:21.366Z,14.96
2022-09-13T22:30:47.626Z,14.97
2022-09-13T22:33:13.853Z,14.98
2022-09-13T22:35:40.120Z,14.97
2022-09-13T22:38:06.309Z,14.95
2022-09-13T22:40:32.503Z,14.92
2022-09-13T22:42:58.697Z,14.92
2022-09-13T22:45:24.900Z,14.85
2022-09-13T22:47:51.097Z,14.94
2022-09-13T22:50:17.293Z,14.93
2022-09-13T22:52:43.486Z,14.89
2022-09-13T22:55:09.680Z,14.92
2022-09-13T22:57:35.872Z,14.85
2022-09-13T23:00:02.176Z,14.81
2022-09-13T23:02:28.386Z,14.75
2022-09-13T23:04:54.605Z,14.80
2022-09-13T23:07:20.808Z,14.74
2022-09-13T23:09:47.013Z,14.77
2022-09-13T23:12:13.201Z,14.78
2022-09-13T23:14:39.401Z,14.75
2022-09-13T23:17:05.691Z,14.80
2022-09-13T23:19:31.934Z,14.80
2022-09-13T23:21:58.127Z,14.78
2022-09-13T23:24:24.377Z,14.68
2022-09-13T23:26:50.592Z,14.66
2022-09-13T23:29:17.840Z,14.64
2022-09-13T23:31:44.223Z,14.66
2022-09-13T23:34:11.044Z,14.62
2022-09-13T23:36:38.041Z,14.67
2022-09-13T23:39:04.914Z,14.63
2022-09-13T23:41:31.101Z,14.66
2022-09-13T23:43:57.300Z,14.64
2022-09-13T23:46:23.496Z,14.58
2022-09-13T23:48:49.759Z,14.65
2022-09-13T23:51:17.209Z,14.65
2022-09-13T23:53:43.392Z,14.65
2022-09-13T23:56:09.675Z,14.57
2022-09-13T23:58:36.162Z,14.50
